BKB6 KMYL-CYKA
Flight info
| Callsign | BKB6 |
|---|---|
| Flight time | 1h 15m |
| Altitude | 30000 |
| Route | DNJ DCT MQG DCT SKA DCT IMAVU DCT YKB |
| Aircraft | RJ1H/M-SDFGIRWY/LB1 |
Departure
| Time | 2026-05-04 07:42 |
|---|---|
| Airport | McCall Municipal Airport (KMYL) |
Arrival
| Time | 2026-05-04 08:57 |
|---|---|
| Airport | Kamloops John Moose Fulton Field Regional Airport (CYKA) |
| Time | Latitude | Longitude | Altitude | Speed | Heading |
|---|---|---|---|---|---|
| 2026-05-04 07:23 | 44.89603 | -116.10076 | 5030 ft | 0 kts | 56° |
| 2026-05-04 07:38 | 44.89687 | -116.10159 | 5032 ft | 3 kts | 291° |
| 2026-05-04 07:38 | 44.89698 | -116.10190 | 5032 ft | 5 kts | 288° |
| 2026-05-04 07:38 | 44.89686 | -116.10206 | 5033 ft | 0 kts | 176° |
| 2026-05-04 07:41 | 44.89640 | -116.10202 | 5033 ft | 32 kts | 178° |
| 2026-05-04 07:41 | 44.89174 | -116.10188 | 5030 ft | 100 kts | 179° |
| 2026-05-04 07:41 | 44.88298 | -116.10160 | 5099 ft | 144 kts | 179° |
| 2026-05-04 07:42 | 44.87277 | -116.10151 | 5620 ft | 148 kts | 180° |
| 2026-05-04 07:42 | 44.86229 | -116.10080 | 6179 ft | 154 kts | 175° |
| 2026-05-04 07:42 | 44.85135 | -116.10022 | 6601 ft | 159 kts | 175° |
| 2026-05-04 07:42 | 44.83984 | -116.09878 | 6789 ft | 174 kts | 170° |
| 2026-05-04 07:43 | 44.82708 | -116.09598 | 6894 ft | 196 kts | 168° |
| 2026-05-04 07:43 | 44.81321 | -116.09255 | 7123 ft | 207 kts | 168° |
| 2026-05-04 07:43 | 44.79830 | -116.08867 | 7298 ft | 229 kts | 168° |
| 2026-05-04 07:43 | 44.78254 | -116.08452 | 7837 ft | 235 kts | 168° |
| 2026-05-04 07:44 | 44.76645 | -116.08040 | 8527 ft | 237 kts | 169° |
| 2026-05-04 07:44 | 44.75015 | -116.08196 | 9243 ft | 238 kts | 205° |
| 2026-05-04 07:44 | 44.73792 | -116.09690 | 10006 ft | 237 kts | 242° |
| 2026-05-04 07:44 | 44.73424 | -116.11909 | 10652 ft | 235 kts | 279° |
| 2026-05-04 07:45 | 44.73922 | -116.14076 | 11291 ft | 234 kts | 297° |
| 2026-05-04 07:45 | 44.74665 | -116.16182 | 11701 ft | 248 kts | 299° |
| 2026-05-04 07:45 | 44.75519 | -116.18380 | 12081 ft | 264 kts | 301° |
| 2026-05-04 07:45 | 44.76560 | -116.20605 | 12368 ft | 282 kts | 316° |
| 2026-05-04 07:46 | 44.78272 | -116.22012 | 12592 ft | 294 kts | 344° |
| 2026-05-04 07:46 | 44.80303 | -116.22710 | 12933 ft | 307 kts | 347° |
| 2026-05-04 07:46 | 44.82426 | -116.23406 | 13262 ft | 318 kts | 347° |
| 2026-05-04 07:46 | 44.84607 | -116.24117 | 13660 ft | 324 kts | 347° |
| 2026-05-04 07:47 | 44.86806 | -116.24852 | 14155 ft | 325 kts | 346° |
| 2026-05-04 07:47 | 44.89018 | -116.25639 | 14563 ft | 328 kts | 345° |
| 2026-05-04 07:47 | 44.91204 | -116.26461 | 14983 ft | 331 kts | 345° |
| 2026-05-04 07:49 | 45.07057 | -116.32834 | 17766 ft | 345 kts | 343° |
| 2026-05-04 07:49 | 45.09369 | -116.33785 | 18140 ft | 347 kts | 343° |
| 2026-05-04 07:49 | 45.11700 | -116.34725 | 18516 ft | 348 kts | 343° |
| 2026-05-04 07:50 | 45.14031 | -116.35685 | 18849 ft | 349 kts | 343° |
| 2026-05-04 07:50 | 45.16379 | -116.36641 | 19156 ft | 351 kts | 343° |
| 2026-05-04 07:50 | 45.18706 | -116.37572 | 19452 ft | 353 kts | 343° |
| 2026-05-04 07:50 | 45.21073 | -116.38540 | 19768 ft | 354 kts | 343° |
| 2026-05-04 07:51 | 45.23445 | -116.39513 | 20085 ft | 356 kts | 343° |
| 2026-05-04 07:51 | 45.25831 | -116.40490 | 20397 ft | 357 kts | 343° |
| 2026-05-04 07:51 | 45.28224 | -116.41471 | 20712 ft | 359 kts | 343° |
| 2026-05-04 07:51 | 45.30631 | -116.42448 | 21052 ft | 360 kts | 343° |
| 2026-05-04 07:52 | 45.33050 | -116.43404 | 21348 ft | 361 kts | 343° |
| 2026-05-04 07:52 | 45.35473 | -116.44377 | 21670 ft | 362 kts | 343° |
| 2026-05-04 07:52 | 45.37904 | -116.45360 | 21964 ft | 363 kts | 343° |
| 2026-05-04 07:52 | 45.40339 | -116.46349 | 22249 ft | 365 kts | 343° |
| 2026-05-04 07:53 | 45.42781 | -116.47342 | 22582 ft | 366 kts | 343° |
| 2026-05-04 07:54 | 45.60144 | -116.54435 | 24606 ft | 376 kts | 343° |
| 2026-05-04 07:55 | 45.62646 | -116.55476 | 24950 ft | 374 kts | 342° |
| 2026-05-04 07:55 | 45.65148 | -116.56532 | 25267 ft | 373 kts | 342° |
| 2026-05-04 07:55 | 45.67638 | -116.57552 | 25560 ft | 372 kts | 343° |
| 2026-05-04 07:55 | 45.70130 | -116.58571 | 25851 ft | 372 kts | 342° |
| 2026-05-04 07:56 | 45.72613 | -116.59606 | 26155 ft | 371 kts | 342° |
| 2026-05-04 07:56 | 45.75088 | -116.60646 | 26455 ft | 370 kts | 342° |
| 2026-05-04 07:56 | 45.77535 | -116.61655 | 26744 ft | 370 kts | 343° |
| 2026-05-04 07:56 | 45.80013 | -116.62672 | 27035 ft | 369 kts | 342° |
| 2026-05-04 07:57 | 45.82472 | -116.63709 | 27308 ft | 369 kts | 342° |
| 2026-05-04 07:57 | 45.84936 | -116.64744 | 27583 ft | 368 kts | 342° |
| 2026-05-04 07:57 | 45.87395 | -116.65759 | 27857 ft | 368 kts | 342° |
| 2026-05-04 07:57 | 45.89853 | -116.66782 | 28109 ft | 367 kts | 343° |
| 2026-05-04 07:58 | 45.92304 | -116.67797 | 28386 ft | 367 kts | 343° |
| 2026-05-04 07:58 | 45.94756 | -116.68807 | 28645 ft | 366 kts | 343° |
| 2026-05-04 07:58 | 45.97202 | -116.69814 | 28891 ft | 366 kts | 343° |
| 2026-05-04 07:58 | 45.99648 | -116.70821 | 29153 ft | 365 kts | 343° |
| 2026-05-04 07:59 | 46.02093 | -116.71830 | 29394 ft | 365 kts | 343° |
| 2026-05-04 07:59 | 46.04533 | -116.72837 | 29623 ft | 365 kts | 343° |
| 2026-05-04 07:59 | 46.06970 | -116.73845 | 29866 ft | 364 kts | 343° |
| 2026-05-04 07:59 | 46.09401 | -116.74880 | 29994 ft | 365 kts | 345° |
| 2026-05-04 08:00 | 46.14210 | -116.76956 | 30024 ft | 362 kts | 346° |
| 2026-05-04 08:02 | 46.33602 | -116.85100 | 30057 ft | 396 kts | 346° |
| 2026-05-04 08:02 | 46.39746 | -116.87986 | 30049 ft | 401 kts | 342° |
| 2026-05-04 08:03 | 46.44072 | -116.90606 | 30010 ft | 403 kts | 339° |
| 2026-05-04 08:03 | 46.49182 | -116.93932 | 30015 ft | 402 kts | 339° |
| 2026-05-04 08:04 | 46.54298 | -116.97223 | 30039 ft | 402 kts | 340° |
| 2026-05-04 08:04 | 46.59412 | -117.00429 | 30049 ft | 403 kts | 340° |
| 2026-05-04 08:05 | 46.64556 | -117.03722 | 30064 ft | 404 kts | 340° |
| 2026-05-04 08:05 | 46.69711 | -117.07005 | 30056 ft | 405 kts | 340° |
| 2026-05-04 08:06 | 46.74874 | -117.10313 | 30060 ft | 405 kts | 340° |
| 2026-05-04 08:06 | 46.80013 | -117.13597 | 30063 ft | 405 kts | 340° |
| 2026-05-04 08:08 | 47.00695 | -117.26820 | 30028 ft | 406 kts | 341° |
| 2026-05-04 08:11 | 47.23703 | -117.41797 | 30023 ft | 400 kts | 340° |
| 2026-05-04 08:11 | 47.31316 | -117.46727 | 30019 ft | 396 kts | 340° |
| 2026-05-04 08:12 | 47.36357 | -117.50034 | 30026 ft | 397 kts | 339° |
| 2026-05-04 08:12 | 47.41406 | -117.53344 | 30034 ft | 397 kts | 339° |
| 2026-05-04 08:13 | 47.46444 | -117.56680 | 30034 ft | 397 kts | 339° |
| 2026-05-04 08:13 | 47.51482 | -117.59983 | 30039 ft | 395 kts | 339° |
| 2026-05-04 08:14 | 47.56510 | -117.63282 | 30039 ft | 395 kts | 339° |
| 2026-05-04 08:16 | 47.76670 | -117.76351 | 30040 ft | 396 kts | 339° |
| 2026-05-04 08:16 | 47.81717 | -117.79636 | 30037 ft | 396 kts | 339° |
| 2026-05-04 08:17 | 47.86766 | -117.82891 | 30027 ft | 395 kts | 339° |
| 2026-05-04 08:17 | 47.91795 | -117.86138 | 30029 ft | 393 kts | 339° |
| 2026-05-04 08:19 | 48.11825 | -117.99201 | 30020 ft | 392 kts | 338° |
| 2026-05-04 08:20 | 48.16814 | -118.02517 | 30025 ft | 393 kts | 338° |
| 2026-05-04 08:20 | 48.21819 | -118.05803 | 30030 ft | 393 kts | 338° |
| 2026-05-04 08:21 | 48.26823 | -118.09116 | 30025 ft | 393 kts | 338° |
| 2026-05-04 08:21 | 48.31833 | -118.12382 | 30032 ft | 392 kts | 338° |
| 2026-05-04 08:22 | 48.36814 | -118.15697 | 30029 ft | 391 kts | 337° |
| 2026-05-04 08:24 | 48.56776 | -118.28933 | 30050 ft | 393 kts | 337° |
| 2026-05-04 08:24 | 48.61780 | -118.32298 | 30047 ft | 393 kts | 337° |
| 2026-05-04 08:25 | 48.66776 | -118.35658 | 30051 ft | 393 kts | 336° |
| 2026-05-04 08:25 | 48.71777 | -118.39027 | 30071 ft | 394 kts | 336° |
| 2026-05-04 08:27 | 48.91806 | -118.52622 | 30093 ft | 394 kts | 336° |
| 2026-05-04 08:28 | 48.96818 | -118.56034 | 30099 ft | 395 kts | 336° |
| 2026-05-04 08:28 | 49.01829 | -118.59452 | 30101 ft | 395 kts | 336° |
| 2026-05-04 08:29 | 49.06845 | -118.62875 | 30110 ft | 395 kts | 336° |
| 2026-05-04 08:31 | 49.26658 | -118.77126 | 30121 ft | 394 kts | 333° |
| 2026-05-04 08:33 | 49.46035 | -118.92893 | 30130 ft | 394 kts | 333° |
| 2026-05-04 08:35 | 49.62952 | -119.06669 | 28253 ft | 394 kts | 333° |
| 2026-05-04 08:35 | 49.65355 | -119.08635 | 27334 ft | 396 kts | 332° |
| 2026-05-04 08:35 | 49.67800 | -119.10633 | 26410 ft | 398 kts | 333° |
| 2026-05-04 08:35 | 49.70252 | -119.12648 | 25451 ft | 401 kts | 332° |
| 2026-05-04 08:37 | 49.84622 | -119.24525 | 21082 ft | 376 kts | 332° |
| 2026-05-04 08:37 | 49.86913 | -119.26440 | 20398 ft | 371 kts | 332° |
| 2026-05-04 08:37 | 49.89176 | -119.28329 | 19693 ft | 368 kts | 332° |
| 2026-05-04 08:38 | 49.91425 | -119.30193 | 18978 ft | 364 kts | 332° |
| 2026-05-04 08:38 | 49.93647 | -119.32030 | 18279 ft | 360 kts | 332° |
| 2026-05-04 08:38 | 49.95859 | -119.33854 | 17483 ft | 358 kts | 332° |
| 2026-05-04 08:40 | 50.10060 | -119.45653 | 14210 ft | 302 kts | 332° |
| 2026-05-04 08:40 | 50.11893 | -119.47181 | 13841 ft | 296 kts | 332° |
| 2026-05-04 08:40 | 50.13691 | -119.48688 | 13444 ft | 291 kts | 332° |
| 2026-05-04 08:41 | 50.15462 | -119.50166 | 13038 ft | 287 kts | 332° |
| 2026-05-04 08:41 | 50.17207 | -119.51642 | 12656 ft | 284 kts | 332° |
| 2026-05-04 08:41 | 50.18937 | -119.53088 | 12281 ft | 281 kts | 332° |
| 2026-05-04 08:41 | 50.20656 | -119.54537 | 11915 ft | 280 kts | 332° |
| 2026-05-04 08:42 | 50.22368 | -119.55967 | 11535 ft | 277 kts | 332° |
| 2026-05-04 08:42 | 50.24058 | -119.57386 | 11161 ft | 275 kts | 332° |
| 2026-05-04 08:42 | 50.25740 | -119.58791 | 10813 ft | 273 kts | 332° |
| 2026-05-04 08:42 | 50.27417 | -119.60187 | 10460 ft | 271 kts | 332° |
| 2026-05-04 08:43 | 50.29071 | -119.61590 | 10154 ft | 268 kts | 332° |
| 2026-05-04 08:43 | 50.30696 | -119.62993 | 9929 ft | 265 kts | 332° |
| 2026-05-04 08:43 | 50.32283 | -119.64354 | 9655 ft | 262 kts | 332° |
| 2026-05-04 08:43 | 50.33884 | -119.65714 | 9393 ft | 261 kts | 332° |
| 2026-05-04 08:44 | 50.35476 | -119.67055 | 9151 ft | 259 kts | 332° |
| 2026-05-04 08:44 | 50.37064 | -119.68394 | 8913 ft | 258 kts | 332° |
| 2026-05-04 08:46 | 50.47969 | -119.77641 | 8145 ft | 253 kts | 332° |
| 2026-05-04 08:46 | 50.49514 | -119.78960 | 8137 ft | 253 kts | 332° |
| 2026-05-04 08:46 | 50.51059 | -119.80284 | 8137 ft | 254 kts | 332° |
| 2026-05-04 08:46 | 50.52601 | -119.81620 | 8144 ft | 253 kts | 331° |
| 2026-05-04 08:47 | 50.54131 | -119.82927 | 8148 ft | 252 kts | 332° |
| 2026-05-04 08:47 | 50.55649 | -119.84227 | 8127 ft | 238 kts | 331° |
| 2026-05-04 08:47 | 50.57042 | -119.85430 | 8122 ft | 225 kts | 332° |
| 2026-05-04 08:47 | 50.58362 | -119.86626 | 8115 ft | 215 kts | 322° |
| 2026-05-04 08:48 | 50.59261 | -119.88466 | 7952 ft | 213 kts | 302° |
| 2026-05-04 08:48 | 50.59993 | -119.90491 | 7737 ft | 212 kts | 302° |
| 2026-05-04 08:48 | 50.60710 | -119.92515 | 7524 ft | 212 kts | 300° |
| 2026-05-04 08:48 | 50.61189 | -119.94718 | 7319 ft | 214 kts | 287° |
| 2026-05-04 08:49 | 50.61559 | -119.96981 | 7089 ft | 214 kts | 288° |
| 2026-05-04 08:50 | 50.63824 | -120.09363 | 5647 ft | 209 kts | 288° |
| 2026-05-04 08:50 | 50.64231 | -120.11564 | 5413 ft | 210 kts | 288° |
| 2026-05-04 08:51 | 50.64771 | -120.14493 | 5121 ft | 210 kts | 287° |
| 2026-05-04 08:51 | 50.65169 | -120.16689 | 5019 ft | 206 kts | 287° |
| 2026-05-04 08:51 | 50.65430 | -120.18142 | 5004 ft | 202 kts | 287° |
| 2026-05-04 08:51 | 50.65806 | -120.20232 | 4957 ft | 195 kts | 287° |
| 2026-05-04 08:52 | 50.66174 | -120.22274 | 4764 ft | 191 kts | 287° |
| 2026-05-04 08:52 | 50.66525 | -120.24216 | 4505 ft | 182 kts | 286° |
| 2026-05-04 08:52 | 50.66867 | -120.26102 | 4187 ft | 177 kts | 286° |
| 2026-05-04 08:52 | 50.67205 | -120.27956 | 3858 ft | 174 kts | 286° |
| 2026-05-04 08:53 | 50.67534 | -120.29746 | 3489 ft | 166 kts | 285° |
| 2026-05-04 08:54 | 50.69628 | -120.40353 | 1548 ft | 124 kts | 282° |
| 2026-05-04 08:55 | 50.69824 | -120.41673 | 1364 ft | 122 kts | 283° |
| 2026-05-04 08:55 | 50.70015 | -120.42931 | 1195 ft | 114 kts | 282° |
| 2026-05-04 08:55 | 50.70190 | -120.44098 | 1137 ft | 100 kts | 283° |
| 2026-05-04 08:55 | 50.70311 | -120.44890 | 1138 ft | 52 kts | 283° |
| 2026-05-04 08:57 | 50.70480 | -120.44843 | 1137 ft | 13 kts | 103° |
| 2026-05-04 09:01 | 50.70430 | -120.44247 | 1125 ft | 0 kts | 332° |